Dallas, GA (30132)

2:15 AM EST on March 04, 2015 (GMT -0500)
Camberley Park/Annandale | Change Station
CLOSE
Current Station
Personal Weather Station
Location: Dallas, GA
Elevation: 1084 ft
Nearby Weather Stations
Active Advisory: Dense Fog Advisory

Elev 1084 ft 33.97 °N, 84.82 °W | Updated 1 minute ago

Overcast
Overcast
51.4 °F
Feels Like 51.4 °F
N
0.0
Wind Variable Wind from West
Gusts 0.0 mph

Today
High -- | Low -- °F
--% Chance of Precip.
Yesterday
High -- | Low -- °F
Precip. -- in
7:04 AM 6:38 PM
Waxing Gibbous, 98% visible
Pressure 30.05 in
Visibility 0.2 miles
Clouds Overcast 100 ft
Dew Point 51 °F
Humidity 100%
Rainfall 0.00 in
Snow Depth Not available.
UV 0 out of 12
Pollen 1.20 out of 12
Air Quality Not available.
Flu Activity Not available.
METAR KPUJ 040655Z AUTO 18004KT 1/4SM FG OVC001 12/12 A3005 RMK AO2

More Conditions Fewer Conditions

Pressure 30.05 in
Visibility 0.2 miles
Clouds Overcast 100 ft
Dew Point 51 °F
Humidity 100%
Rainfall 0.00 in
Snow Depth Not available.
UV 0 out of 12
Pollen 1.20 out of 12
Air Quality Not available.
Flu Activity Not available.
METAR KPUJ 040655Z AUTO 18004KT 1/4SM FG OVC001 12/12 A3005 RMK AO2

More Conditions Fewer Conditions

10-Day Weather Forecast

Almanac

Astronomy

Mar. 04, 2015 Rise Set
Actual Time
Civil Twilight
Nautical Twilight
Astronomical Twilight
Moon
Length of Visible Light
Length of Day
Tomorrow will be .
, % of the Moon is Illuminated

Today's Extremes

State Highs State Lows

Community

WunderPhotos

Upload Photos

1,802,402 photos uploaded!

WunderBlogs® & News

Nearby

Air Quality

  Air Quality AQ Index Pollutant
Not available.

Snow Depth

Station Depth Elevation

Earthquake Activity

City Distance Mag. Time & Date
Minimum magnitude displayed is 2.5.

Coastal Water Temperatures

Place Temperature

Nearby Weather Stations

Dense Fog Advisory
Statement as of 12:18 AM EST on March 04, 2015

... Dense fog advisory remains in effect until 10 am EST this
morning...

* locations... areas across north Georgia mainly along and north of a
LaGrange to Macon to Swainsboro line.

* Visibilities... one quarter of a mile or less.

* Timing... through 10 am.

* Impacts... dense fog will create low visibilities through the
morning commute.

Precautionary/preparedness actions...

A dense fog advisory means visibilities will frequently be reduced to
less than one quarter mile. If driving... slow down... use your low-
beam headlights... and leave plenty of distance ahead of you.